createdAt,value
2019-06-01T00:01:17.459Z,15.20
2019-06-01T00:03:54.894Z,15.10
2019-06-01T00:06:32.360Z,15.30
2019-06-01T00:09:11.018Z,15.50
2019-06-01T00:14:24.881Z,16.20
2019-06-01T00:19:41.787Z,16.20
2019-06-01T00:32:41.167Z,16.50
2019-06-01T00:35:18.681Z,16.50
2019-06-01T00:37:57.450Z,16.60
2019-06-01T00:40:36.680Z,16.90
2019-06-01T00:45:50.866Z,16.40
2019-06-01T00:51:06.306Z,16.50
2019-06-01T00:56:20.488Z,16.50
2019-06-01T01:01:34.767Z,16.50
2019-06-01T01:04:12.278Z,17.10
2019-06-01T01:06:52.703Z,16.60
2019-06-01T01:09:38.672Z,17.00
2019-06-01T01:14:53.926Z,17.30
2019-06-01T01:17:32.604Z,16.70
2019-06-01T01:20:10.297Z,16.70
2019-06-01T01:22:50.157Z,16.40
2019-06-01T01:28:02.527Z,17.00
2019-06-01T01:30:41.854Z,17.20
2019-06-01T01:33:21.591Z,17.40
2019-06-01T01:38:35.292Z,17.70
2019-06-01T01:41:12.938Z,17.30
2019-06-01T01:43:50.449Z,17.70
2019-06-01T01:46:27.892Z,18.00
2019-06-01T01:49:07.845Z,17.70
2019-06-01T01:51:45.314Z,17.60
2019-06-01T01:56:58.821Z,17.60
2019-06-01T02:02:12.773Z,17.90
2019-06-01T02:07:26.498Z,18.10
2019-06-01T02:10:05.335Z,18.30
2019-06-01T02:15:18.975Z,18.50
2019-06-01T02:17:58.165Z,18.70
2019-06-01T02:23:10.673Z,18.80
2019-06-01T02:25:48.156Z,18.50
2019-06-01T02:28:27.070Z,18.80
2019-06-01T02:36:14.801Z,18.80
2019-06-01T02:38:54.637Z,18.10
2019-06-01T02:41:34.981Z,17.90
2019-06-01T02:46:46.801Z,18.10
2019-06-01T02:49:24.219Z,18.20
2019-06-01T02:52:03.518Z,18.70
2019-06-01T02:54:42.877Z,18.80
2019-06-01T02:57:20.357Z,18.70
2019-06-01T03:02:35.588Z,18.80
2019-06-01T03:05:13.446Z,18.70
2019-06-01T03:07:53.913Z,18.40
2019-06-01T03:10:31.852Z,18.40
2019-06-01T03:13:10.557Z,18.10
2019-06-01T03:15:49.679Z,18.40
2019-06-01T03:18:31.339Z,18.10
2019-06-01T03:21:15.109Z,18.20
2019-06-01T03:23:55.844Z,18.30
2019-06-01T03:26:35.474Z,18.40
2019-06-01T03:31:54.922Z,18.40
2019-06-01T03:34:32.879Z,18.50
2019-06-01T03:37:13.385Z,18.50
2019-06-01T03:39:52.541Z,18.90
2019-06-01T03:42:31.658Z,18.80
2019-06-01T03:45:12.381Z,19.10
2019-06-01T03:47:55.617Z,19.00
2019-06-01T03:50:33.315Z,18.90
2019-06-01T03:53:17.167Z,19.10
2019-06-01T03:55:56.529Z,19.40
2019-06-01T03:58:34.014Z,19.60
2019-06-01T04:01:11.647Z,19.80
2019-06-01T04:03:49.564Z,20.00
2019-06-01T04:06:27.379Z,19.90
2019-06-01T04:09:10.082Z,19.80
2019-06-01T04:11:49.562Z,20.00
2019-06-01T04:14:30.428Z,20.00
2019-06-01T04:17:08.508Z,20.00
2019-06-01T04:19:46.366Z,19.80
2019-06-01T04:24:59.235Z,20.30
2019-06-01T04:30:13.596Z,20.00
2019-06-01T04:32:53.490Z,20.90
2019-06-01T04:35:31.545Z,20.80
2019-06-01T04:38:09.444Z,20.40
2019-06-01T04:40:47.326Z,20.20
2019-06-01T04:43:26.839Z,20.00
2019-06-01T04:46:08.107Z,19.90
2019-06-01T04:48:45.735Z,20.00
2019-06-01T04:51:27.083Z,20.10
2019-06-01T04:54:05.091Z,20.20
2019-06-01T04:56:42.800Z,20.40
2019-06-01T04:59:20.688Z,20.40
2019-06-01T05:01:58.190Z,20.10
2019-06-01T05:04:37.082Z,19.80
2019-06-01T05:07:18.376Z,19.70
2019-06-01T05:09:56.287Z,19.70
2019-06-01T05:12:36.566Z,19.90
2019-06-01T05:15:16.064Z,20.20
2019-06-01T05:17:56.814Z,20.60
2019-06-01T05:20:35.224Z,21.90
2019-06-01T05:23:15.122Z,21.50
2019-06-01T05:25:53.450Z,22.40
2019-06-01T05:31:08.768Z,21.80
2019-06-01T05:33:45.578Z,21.50
2019-06-01T05:36:23.595Z,21.10
2019-06-01T05:39:01.591Z,21.00
2019-06-01T05:44:14.948Z,20.20
2019-06-01T05:46:53.211Z,19.90
2019-06-01T05:49:35.070Z,19.70
2019-06-01T05:52:15.180Z,19.80
2019-06-01T05:54:54.776Z,20.40
2019-06-01T05:57:34.279Z,20.50
2019-06-01T06:00:13.083Z,20.40
2019-06-01T06:02:50.835Z,20.80
2019-06-01T06:05:28.164Z,20.90
2019-06-01T06:11:46.678Z,20.80
2019-06-01T06:14:26.520Z,21.10
2019-06-01T06:17:05.915Z,21.20
2019-06-01T06:26:07.839Z,20.80
2019-06-01T06:28:49.639Z,20.50
2019-06-01T06:31:30.641Z,20.40
2019-06-01T06:34:08.462Z,20.40
2019-06-01T06:36:47.976Z,20.10
2019-06-01T06:39:27.062Z,19.90
2019-06-01T06:42:07.148Z,19.50
2019-06-01T06:44:44.897Z,19.30
2019-06-01T06:47:23.012Z,19.20
2019-06-01T06:50:01.991Z,19.00
2019-06-01T06:52:41.950Z,18.90
2019-06-01T06:55:19.874Z,18.70
2019-06-01T06:57:57.589Z,18.70
2019-06-01T07:00:35.269Z,18.60
2019-06-01T07:03:14.933Z,18.50
2019-06-01T07:05:54.430Z,18.40
2019-06-01T07:08:33.339Z,18.40
2019-06-01T07:11:12.065Z,18.30
2019-06-01T07:13:51.737Z,18.20
2019-06-01T07:16:31.808Z,18.10
2019-06-01T07:19:09.526Z,18.00
2019-06-01T07:21:50.587Z,18.00
2019-06-01T07:24:28.205Z,18.20
2019-06-01T07:27:08.464Z,17.70
2019-06-01T07:29:47.285Z,17.90
2019-06-01T07:32:28.642Z,17.50
2019-06-01T07:35:06.569Z,17.50
2019-06-01T07:40:20.828Z,17.90
2019-06-01T07:45:35.394Z,17.80
2019-06-01T07:48:12.932Z,17.50
2019-06-01T07:50:50.406Z,17.30
2019-06-01T07:53:27.902Z,17.30
2019-06-01T07:56:05.503Z,17.50
2019-06-01T07:58:45.519Z,17.60
2019-06-01T08:01:25.170Z,17.50
2019-06-01T08:04:02.354Z,17.40
2019-06-01T08:06:47.050Z,17.40
2019-06-01T08:09:24.531Z,17.20
2019-06-01T08:14:36.633Z,17.20
2019-06-01T08:19:52.089Z,17.50
2019-06-01T08:22:29.990Z,17.70
2019-06-01T08:25:10.859Z,17.10
2019-06-01T08:27:51.417Z,16.80
2019-06-01T08:30:33.351Z,16.80
2019-06-01T08:35:45.764Z,17.20
2019-06-01T08:38:23.426Z,16.80
2019-06-01T08:43:37.989Z,17.10
2019-06-01T08:46:15.638Z,17.20
2019-06-01T08:48:53.512Z,17.10
2019-06-01T08:51:34.448Z,16.90
2019-06-01T08:54:14.102Z,16.90
2019-06-01T08:56:56.654Z,16.90
2019-06-01T08:59:38.346Z,16.90
2019-06-01T09:04:52.851Z,17.00
2019-06-01T09:07:31.066Z,16.80
2019-06-01T09:10:09.367Z,16.70
2019-06-01T09:12:46.842Z,16.70
2019-06-01T09:15:27.435Z,16.70
2019-06-01T09:18:04.776Z,16.70
2019-06-01T09:20:42.234Z,16.60
2019-06-01T09:23:21.671Z,16.70
2019-06-01T09:26:00.428Z,16.70
2019-06-01T09:28:38.195Z,16.60
2019-06-01T09:33:52.954Z,16.20
2019-06-01T09:36:32.477Z,16.70
2019-06-01T09:44:26.817Z,16.70
2019-06-01T09:47:07.101Z,16.70
2019-06-01T09:49:46.205Z,16.20
2019-06-01T09:52:25.653Z,16.70
2019-06-01T09:57:45.915Z,16.70
2019-06-01T10:03:03.605Z,16.40
2019-06-01T10:08:20.261Z,17.10
2019-06-01T10:16:13.227Z,16.50
2019-06-01T10:18:50.855Z,16.30
2019-06-01T10:21:29.915Z,15.90
2019-06-01T10:24:07.700Z,15.90
2019-06-01T10:26:46.634Z,15.90
2019-06-01T10:32:03.405Z,16.30
2019-06-01T10:34:45.678Z,16.00
2019-06-01T10:40:02.874Z,15.90
2019-06-01T10:42:41.889Z,16.00
2019-06-01T10:45:22.745Z,16.70
2019-06-01T10:48:04.734Z,15.80
2019-06-01T10:53:19.987Z,16.20
2019-06-01T10:58:52.414Z,15.90
2019-06-01T11:01:14.758Z,16.10
2019-06-01T11:03:57.552Z,16.10
2019-06-01T11:06:43.349Z,17.00
2019-06-01T11:09:18.376Z,15.40
2019-06-01T11:11:56.095Z,15.80
2019-06-01T11:14:39.084Z,16.80
2019-06-01T11:17:21.234Z,16.00
2019-06-01T11:19:58.767Z,16.10
2019-06-01T11:25:11.577Z,16.40
2019-06-01T11:27:52.269Z,15.70
2019-06-01T11:30:30.379Z,15.80
2019-06-01T11:35:51.178Z,16.00
2019-06-01T11:41:06.730Z,15.50
2019-06-01T11:43:45.869Z,15.50
2019-06-01T11:51:34.890Z,16.00
2019-06-01T11:54:13.975Z,15.30
2019-06-01T11:59:30.486Z,15.50
2019-06-01T12:02:10.084Z,15.60
2019-06-01T12:04:47.666Z,15.10
2019-06-01T12:07:25.146Z,14.90
2019-06-01T12:10:03.070Z,15.00
2019-06-01T12:12:46.358Z,15.30
2019-06-01T12:15:26.780Z,14.90
2019-06-01T12:18:03.664Z,15.30
2019-06-01T12:20:45.150Z,15.20
2019-06-01T12:23:27.758Z,15.10
2019-06-01T12:26:05.325Z,15.10
2019-06-01T12:28:47.788Z,14.90
2019-06-01T12:31:25.322Z,14.40
2019-06-01T12:34:02.717Z,15.00
2019-06-01T12:36:42.698Z,14.60
2019-06-01T12:39:25.627Z,14.40
2019-06-01T12:42:03.201Z,14.90
2019-06-01T12:47:16.807Z,14.80
2019-06-01T12:49:57.496Z,14.20
2019-06-01T12:52:37.282Z,14.10
2019-06-01T12:55:14.851Z,14.20
2019-06-01T12:57:52.302Z,14.80
2019-06-01T13:03:07.677Z,14.40
2019-06-01T13:05:43.902Z,14.10
2019-06-01T13:08:22.659Z,14.40
2019-06-01T13:11:03.665Z,14.30
2019-06-01T13:13:43.239Z,14.40
2019-06-01T13:16:22.018Z,14.30
2019-06-01T13:19:01.404Z,14.40
2019-06-01T13:24:13.883Z,14.60
2019-06-01T13:26:54.224Z,14.30
2019-06-01T13:29:32.307Z,14.30
2019-06-01T13:32:11.301Z,13.90
2019-06-01T13:34:51.357Z,14.30
2019-06-01T13:37:29.015Z,13.90
2019-06-01T13:40:06.416Z,14.10
2019-06-01T13:45:22.741Z,13.70
2019-06-01T13:48:00.165Z,14.10
2019-06-01T13:50:40.243Z,14.10
2019-06-01T13:53:18.939Z,13.60
2019-06-01T13:55:56.353Z,14.00
2019-06-01T13:58:36.928Z,13.50
2019-06-01T14:01:14.390Z,14.00
2019-06-01T14:03:55.736Z,14.10
2019-06-01T14:06:33.653Z,13.80
2019-06-01T14:09:12.319Z,13.50
2019-06-01T14:11:51.454Z,13.60
2019-06-01T14:14:28.997Z,14.00
2019-06-01T14:19:42.628Z,13.30
2019-06-01T14:22:20.077Z,13.70
2019-06-01T14:25:11.566Z,13.70
2019-06-01T14:27:36.085Z,13.70
2019-06-01T14:30:16.049Z,13.80
2019-06-01T14:32:55.118Z,13.80
2019-06-01T14:35:36.257Z,13.90
2019-06-01T14:38:13.645Z,14.00
2019-06-01T14:40:51.990Z,13.40
2019-06-01T14:43:31.652Z,13.90
2019-06-01T14:46:09.134Z,13.60
2019-06-01T14:48:47.727Z,13.70
2019-06-01T14:54:00.173Z,13.70
2019-06-01T14:56:41.385Z,13.50
2019-06-01T14:59:20.021Z,13.80
2019-06-01T15:01:58.382Z,13.70
2019-06-01T15:04:39.940Z,13.90
2019-06-01T15:09:56.296Z,13.60
2019-06-01T15:15:11.324Z,14.60
2019-06-01T15:20:25.652Z,13.90
2019-06-01T15:23:05.536Z,13.60
2019-06-01T15:25:44.631Z,13.70
2019-06-01T15:28:23.274Z,13.80
2019-06-01T15:31:00.793Z,13.70
2019-06-01T15:33:38.154Z,13.90
2019-06-01T15:36:15.666Z,14.00
2019-06-01T15:38:55.550Z,13.60
2019-06-01T15:41:33.340Z,13.70
2019-06-01T15:44:14.589Z,13.30
2019-06-01T15:46:53.748Z,13.60
2019-06-01T15:49:31.256Z,13.60
2019-06-01T15:52:08.765Z,15.90
2019-06-01T15:54:46.284Z,13.70
2019-06-01T15:57:23.873Z,14.10
2019-06-01T16:00:03.076Z,13.70
2019-06-01T16:02:42.413Z,13.50
2019-06-01T16:05:21.036Z,13.30
2019-06-01T16:07:59.330Z,13.50
2019-06-01T16:10:38.990Z,13.40
2019-06-01T16:13:18.817Z,13.00
2019-06-01T16:16:01.595Z,13.30
2019-06-01T16:18:38.934Z,13.30
2019-06-01T16:21:16.326Z,13.70
2019-06-01T16:23:54.119Z,13.30
2019-06-01T16:26:31.565Z,12.70
2019-06-01T16:29:09.073Z,13.40
2019-06-01T16:34:24.349Z,13.30
2019-06-01T16:37:02.039Z,12.90
2019-06-01T16:39:57.976Z,12.70
2019-06-01T16:42:20.738Z,12.60
2019-06-01T16:44:59.560Z,12.50
2019-06-01T16:47:38.228Z,13.20
2019-06-01T16:50:17.202Z,12.50
2019-06-01T16:52:55.805Z,13.30
2019-06-01T16:55:35.169Z,13.30
2019-06-01T16:58:12.795Z,13.30
2019-06-01T17:00:50.481Z,12.60
2019-06-01T17:03:30.405Z,12.50
2019-06-01T17:06:08.002Z,12.60
2019-06-01T17:08:50.816Z,12.70
2019-06-01T17:11:27.234Z,12.60
2019-06-01T17:14:06.963Z,12.90
2019-06-01T17:19:20.993Z,12.80
2019-06-01T17:22:01.437Z,13.10
2019-06-01T17:24:40.792Z,12.70
2019-06-01T17:29:54.617Z,12.90
2019-06-01T17:32:32.058Z,13.40
2019-06-01T17:35:09.535Z,12.70
2019-06-01T17:37:47.015Z,13.00
2019-06-01T17:40:37.659Z,12.80
2019-06-01T17:43:08.917Z,12.90
2019-06-01T17:45:46.559Z,13.00
2019-06-01T17:48:26.965Z,12.50
2019-06-01T17:51:04.451Z,12.80
2019-06-01T17:53:42.230Z,12.90
2019-06-01T17:56:19.684Z,12.70
2019-06-01T17:58:57.200Z,12.90
2019-06-01T18:09:22.854Z,12.90
2019-06-01T18:12:02.181Z,12.50
2019-06-01T18:14:41.481Z,12.80
2019-06-01T18:17:18.938Z,12.90
2019-06-01T18:19:57.614Z,12.40
2019-06-01T18:22:34.984Z,12.30
2019-06-01T18:25:12.960Z,12.90
2019-06-01T18:27:50.446Z,12.10
2019-06-01T18:30:32.732Z,12.80
2019-06-01T18:33:11.063Z,12.40
2019-06-01T18:35:48.363Z,12.80
2019-06-01T18:38:27.213Z,12.40
2019-06-01T18:43:40.731Z,12.40
2019-06-01T18:48:53.027Z,13.20
2019-06-01T18:51:30.491Z,12.70
2019-06-01T18:56:45.697Z,12.80
2019-06-01T18:59:23.669Z,12.80
2019-06-01T19:02:01.375Z,12.20
2019-06-01T19:04:40.704Z,12.40
2019-06-01T19:07:18.078Z,12.40
2019-06-01T19:10:01.158Z,12.30
2019-06-01T19:12:42.331Z,12.70
2019-06-01T19:15:28.559Z,12.50
2019-06-01T19:18:01.597Z,12.30
2019-06-01T19:20:38.985Z,12.80
2019-06-01T19:23:20.208Z,13.00
2019-06-01T19:28:29.880Z,12.40
2019-06-01T19:31:08.718Z,12.40
2019-06-01T19:33:46.301Z,12.30
2019-06-01T19:38:59.110Z,12.60
2019-06-01T19:41:44.862Z,12.30
2019-06-01T19:44:15.782Z,12.70
2019-06-01T19:46:54.567Z,12.30
2019-06-01T19:49:32.072Z,12.30
2019-06-01T19:52:10.749Z,12.30
2019-06-01T19:54:49.599Z,11.90
2019-06-01T20:00:05.846Z,11.90
2019-06-01T20:02:43.340Z,12.20
2019-06-01T20:05:20.771Z,12.20
2019-06-01T20:07:58.203Z,12.30
2019-06-01T20:10:36.836Z,12.30
2019-06-01T20:13:15.242Z,12.40
2019-06-01T20:15:52.850Z,12.40
2019-06-01T20:18:30.456Z,12.00
2019-06-01T20:21:11.698Z,12.40
2019-06-01T20:23:49.176Z,12.30
2019-06-01T20:31:39.366Z,12.30
2019-06-01T20:34:19.931Z,12.10
2019-06-01T20:36:57.652Z,12.00
2019-06-01T20:39:35.044Z,12.10
2019-06-01T20:42:22.236Z,12.50
2019-06-01T20:44:52.730Z,12.10
2019-06-01T20:47:30.636Z,12.50
2019-06-01T20:50:10.538Z,12.30
2019-06-01T20:52:47.979Z,12.20
2019-06-01T20:55:27.230Z,12.20
2019-06-01T20:58:04.731Z,12.50
2019-06-01T21:00:42.210Z,12.50
2019-06-01T21:08:31.341Z,12.50
2019-06-01T21:11:08.696Z,12.00
2019-06-01T21:13:46.244Z,12.50
2019-06-01T21:16:25.769Z,12.40
2019-06-01T21:19:03.348Z,12.20
2019-06-01T21:21:40.849Z,12.40
2019-06-01T21:24:21.143Z,12.10
2019-06-01T21:26:58.782Z,12.40
2019-06-01T21:29:36.217Z,12.00
2019-06-01T21:32:15.113Z,12.50
2019-06-01T21:34:52.203Z,12.30
2019-06-01T21:37:29.586Z,12.50
2019-06-01T21:40:07.078Z,12.60
2019-06-01T21:43:00.378Z,12.70
2019-06-01T21:47:59.182Z,12.10
2019-06-01T21:50:36.885Z,11.80
2019-06-01T21:53:15.817Z,12.50
2019-06-01T21:55:53.101Z,12.20
2019-06-01T21:58:30.532Z,12.80
2019-06-01T22:01:08.679Z,12.10
2019-06-01T22:03:48.060Z,12.20
2019-06-01T22:09:01.101Z,12.80
2019-06-01T22:11:39.786Z,12.30
2019-06-01T22:14:17.349Z,12.90
2019-06-01T22:16:56.207Z,12.70
2019-06-01T22:19:33.579Z,12.80
2019-06-01T22:22:13.700Z,12.80
2019-06-01T22:24:51.117Z,13.00
2019-06-01T22:27:30.380Z,13.00
2019-06-01T22:30:08.311Z,13.40
2019-06-01T22:32:45.792Z,13.20
2019-06-01T22:35:24.641Z,13.50
2019-06-01T22:38:01.880Z,14.00
2019-06-01T22:40:39.334Z,13.90
2019-06-01T22:43:16.769Z,14.30
2019-06-01T22:45:54.254Z,13.30
2019-06-01T22:48:32.845Z,13.80
2019-06-01T22:51:10.433Z,13.50
2019-06-01T22:53:47.805Z,13.50
2019-06-01T22:56:27.268Z,13.90
2019-06-01T22:59:04.692Z,14.00
2019-06-01T23:04:18.853Z,14.50
2019-06-01T23:06:57.808Z,14.10
2019-06-01T23:09:36.475Z,13.80
2019-06-01T23:12:13.944Z,13.80
2019-06-01T23:14:51.492Z,14.10
2019-06-01T23:17:30.212Z,14.00
2019-06-01T23:20:07.974Z,14.30
2019-06-01T23:22:45.377Z,14.20
2019-06-01T23:25:26.454Z,14.60
2019-06-01T23:30:44.217Z,14.40
2019-06-01T23:33:22.696Z,14.30
2019-06-01T23:36:01.501Z,14.70
2019-06-01T23:38:38.995Z,15.30
2019-06-01T23:41:16.694Z,15.50
2019-06-01T23:44:10.318Z,15.20
2019-06-01T23:46:37.197Z,15.90
2019-06-01T23:51:49.457Z,15.40
2019-06-01T23:57:02.951Z,15.60
2019-06-01T23:59:44.007Z,15.60
